Time;durP1;ratioP1;P1;durP2;ratioP2;P2;SDS_P1;SDS_P2;PMS_P1;PMS_P2;Temp;Humidity;BMP_temperature;BMP_pressure;BME280_temperature;BME280_humidity;BME280_pressure;Samples;Min_cycle;Max_cycle;Signal;HPM_P1;HPM_P2
2021/05/06 00:32:09;;;;;;;11.68;5.22;;;4.80;86.00;;;;;;5090669;28;20448;-80
2021/05/06 00:34:35;;;;;;;10.43;5.35;;;4.70;85.60;;;;;;5090485;28;20385;-80
2021/05/06 00:37:00;;;;;;;10.00;5.10;;;4.80;86.00;;;;;;5090677;28;20366;-80
2021/05/06 00:39:34;;;;;;;10.63;5.53;;;4.70;85.30;;;;;;5072293;28;20719;-81
2021/05/06 00:58:38;;;;;;;8.35;5.30;;;4.60;85.60;;;;;;5090100;28;20377;-79
2021/05/06 01:04:23;;;;;;;10.60;5.57;;;4.60;85.40;;;;;;5090450;28;20429;-81
2021/05/06 01:06:27;;;;;;;14.70;5.47;;;4.50;84.80;;;;;;5084019;28;20393;-80
2021/05/06 01:08:57;;;;;;;10.27;5.70;;;4.70;85.00;;;;;;5072282;28;20382;-82
2021/05/06 01:13:49;;;;;;;10.68;5.43;;;4.70;84.70;;;;;;5090731;28;20463;-79
2021/05/06 01:16:15;;;;;;;10.65;5.22;;;4.70;84.40;;;;;;5091437;28;20745;-85
2021/05/06 01:18:40;;;;;;;11.52;5.75;;;4.70;84.30;;;;;;5076182;28;20405;-80
2021/05/06 01:21:06;;;;;;;9.37;5.20;;;4.80;84.00;;;;;;5094380;28;20412;-80
2021/05/06 01:23:33;;;;;;;8.30;5.47;;;4.70;83.80;;;;;;5094482;28;20476;-80
2021/05/06 01:26:05;;;;;;;15.07;5.80;;;4.60;83.60;;;;;;5094405;28;20494;-80
2021/05/06 01:28:35;;;;;;;10.27;6.00;;;4.50;84.20;;;;;;5093537;28;20405;-82
2021/05/06 01:31:12;;;;;;;14.52;6.05;;;4.40;84.60;;;;;;5094104;28;20868;-83
2021/05/06 01:33:52;;;;;;;8.45;5.90;;;4.50;84.50;;;;;;5093982;28;20853;-80
2021/05/06 01:36:21;;;;;;;11.57;6.07;;;4.60;84.20;;;;;;5075942;28;20377;-84
2021/05/06 01:46:50;;;;;;;10.35;6.10;;;4.60;84.20;;;;;;5093570;28;20374;-79
2021/05/06 01:57:37;;;;;;;12.05;6.30;;;4.40;84.30;;;;;;5093243;28;20373;-79
2021/05/06 02:00:35;;;;;;;12.25;6.80;;;4.30;84.70;;;;;;5074360;28;20404;-79
2021/05/06 02:03:01;;;;;;;9.23;6.57;;;4.40;84.70;;;;;;5089896;28;20920;-80
2021/05/06 02:05:27;;;;;;;10.23;6.45;;;4.40;84.40;;;;;;5075183;28;20390;-79
2021/05/06 02:07:53;;;;;;;10.85;6.20;;;4.40;84.10;;;;;;5093184;28;20845;-79
2021/05/06 02:10:23;;;;;;;13.50;6.80;;;4.40;84.30;;;;;;5093199;28;20464;-80
2021/05/06 02:12:48;;;;;;;10.50;6.43;;;4.30;84.00;;;;;;5075252;28;20386;-81
2021/05/06 02:15:18;;;;;;;12.20;6.78;;;4.40;84.40;;;;;;5093171;28;20816;-82
2021/05/06 02:17:45;;;;;;;11.45;6.85;;;4.40;84.10;;;;;;5092753;28;20866;-86
2021/05/06 02:20:12;;;;;;;11.50;7.07;;;4.40;84.20;;;;;;5093102;28;20409;-80
2021/05/06 02:22:37;;;;;;;12.30;7.10;;;4.40;83.90;;;;;;5093093;28;20483;-80
2021/05/06 02:25:04;;;;;;;11.13;6.77;;;4.40;84.40;;;;;;5093242;28;20695;-80
2021/05/06 02:27:30;;;;;;;12.20;6.72;;;4.40;84.40;;;;;;5091972;28;20381;-82
2021/05/06 02:29:56;;;;;;;13.15;7.40;;;4.40;84.90;;;;;;5092512;28;20366;-81
2021/05/06 02:32:21;;;;;;;11.77;7.13;;;4.50;85.10;;;;;;5074425;28;20393;-79
2021/05/06 02:34:47;;;;;;;11.15;6.93;;;4.60;85.40;;;;;;5093081;28;20922;-80
2021/05/06 02:37:13;;;;;;;11.90;7.35;;;4.60;85.70;;;;;;5092139;28;20567;-80
2021/05/06 02:39:39;;;;;;;15.27;7.30;;;4.60;86.20;;;;;;5092920;28;20413;-80
2021/05/06 02:42:04;;;;;;;11.03;7.23;;;4.60;85.70;;;;;;5074125;28;20444;-80
2021/05/06 02:44:33;;;;;;;12.90;6.90;;;4.60;85.70;;;;;;5092755;28;20493;-82
2021/05/06 02:46:59;;;;;;;10.38;6.32;;;4.60;85.80;;;;;;5091777;28;20750;-80
2021/05/06 02:49:25;;;;;;;9.85;6.57;;;4.60;85.50;;;;;;5074144;28;20393;-80
2021/05/06 02:51:54;;;;;;;12.10;6.53;;;4.70;85.10;;;;;;5092396;28;20858;-81
2021/05/06 02:54:20;;;;;;;10.10;6.47;;;4.70;85.70;;;;;;5092459;28;20386;-85
2021/05/06 03:05:08;;;;;;;10.13;5.75;;;4.80;85.40;;;;;;5070416;28;20791;-81
2021/05/06 03:07:35;;;;;;;9.43;5.32;;;4.80;84.90;;;;;;5091721;28;20468;-83
2021/05/06 03:10:11;;;;;;;6.00;4.63;;;4.90;85.10;;;;;;5092204;28;20389;-80
2021/05/06 03:23:22;;;;;;;9.15;4.20;;;4.70;86.80;;;;;;5092049;28;20382;-82
2021/05/06 03:25:49;;;;;;;6.83;4.10;;;4.70;87.50;;;;;;5091272;28;20381;-81
2021/05/06 03:28:21;;;;;;;5.10;3.75;;;4.70;87.50;;;;;;5073377;28;20382;-79
2021/05/06 03:31:05;;;;;;;7.53;4.38;;;4.60;87.90;;;;;;5090065;28;20398;-83
2021/05/06 03:44:30;;;;;;;10.18;6.72;;;4.60;90.10;;;;;;5091475;28;20370;-81
2021/05/06 04:19:02;;;;;;;9.80;5.50;;;4.50;90.30;;;;;;5090248;28;20442;-83
2021/05/06 04:21:33;;;;;;;14.30;6.03;;;4.50;90.30;;;;;;5090784;28;20425;-83
2021/05/06 04:27:10;;;;;;;9.10;5.78;;;4.50;90.20;;;;;;5090711;28;20412;-81
2021/05/06 04:37:51;;;;;;;11.75;6.30;;;4.70;90.40;;;;;;5089796;28;20401;-81
2021/05/06 04:40:39;;;;;;;14.10;6.50;;;4.70;90.20;;;;;;5090708;28;20482;-82
2021/05/06 05:06:29;;;;;;;9.48;5.90;;;4.90;90.10;;;;;;5094390;28;20866;-83
2021/05/06 05:09:07;;;;;;;8.50;5.57;;;4.90;90.10;;;;;;5075893;28;20410;-83
2021/05/06 05:11:44;;;;;;;7.93;5.18;;;5.00;89.60;;;;;;5094507;28;20929;-86
2021/05/06 05:20:01;;;;;;;11.75;5.03;;;4.90;89.20;;;;;;5093777;28;20372;-85
2021/05/06 05:25:14;;;;;;;12.52;5.55;;;5.00;89.50;;;;;;5094394;28;20372;-82
2021/05/06 05:27:40;;;;;;;10.70;5.32;;;5.00;89.20;;;;;;5093697;28;20374;-85
2021/05/06 05:30:11;;;;;;;10.50;5.33;;;5.00;89.00;;;;;;5094246;28;20431;-82
2021/05/06 05:32:39;;;;;;;10.43;6.18;;;5.00;89.20;;;;;;5093700;28;20780;-82
2021/05/06 05:35:10;;;;;;;8.48;5.82;;;5.00;89.00;;;;;;5076021;28;21078;-81
2021/05/06 05:37:40;;;;;;;14.63;6.97;;;5.00;89.00;;;;;;5075238;28;20378;-82
2021/05/06 05:40:15;;;;;;;12.10;6.57;;;5.10;89.10;;;;;;5094049;28;20421;-86
2021/05/06 05:42:54;;;;;;;15.23;7.50;;;5.20;89.20;;;;;;5093767;28;20409;-82
2021/05/06 05:55:59;;;;;;;18.42;8.88;;;5.10;89.10;;;;;;5069164;28;20432;-81
2021/05/06 05:58:25;;;;;;;13.50;8.70;;;5.10;89.30;;;;;;5093219;28;20378;-83
2021/05/06 06:00:51;;;;;;;13.63;8.95;;;5.10;89.50;;;;;;5075100;28;20382;-82
2021/05/06 06:03:16;;;;;;;14.68;9.15;;;5.10;89.40;;;;;;5091965;28;20895;-84
2021/05/06 06:05:42;;;;;;;17.10;9.10;;;5.10;89.60;;;;;;5093708;28;20386;-82
2021/05/06 06:08:08;;;;;;;15.70;9.47;;;5.10;89.20;;;;;;5074659;28;20391;-83
2021/05/06 06:10:34;;;;;;;13.77;9.32;;;5.20;89.60;;;;;;5093486;28;20857;-81
2021/05/06 06:12:59;;;;;;;14.02;9.60;;;5.20;89.50;;;;;;5092961;28;20397;-82
2021/05/06 06:18:15;;;;;;;15.80;10.02;;;5.30;89.30;;;;;;5092337;28;20373;-82
2021/05/06 06:20:44;;;;;;;17.40;10.32;;;5.30;89.00;;;;;;5093247;28;20378;-82
2021/05/06 06:23:09;;;;;;;18.30;10.40;;;5.20;88.80;;;;;;5074820;28;20417;-82
2021/05/06 06:25:35;;;;;;;18.87;11.13;;;5.30;88.80;;;;;;5092907;28;20378;-82
2021/05/06 06:28:01;;;;;;;16.87;11.40;;;5.30;88.60;;;;;;5072473;28;20774;-86
2021/05/06 06:30:27;;;;;;;16.80;10.73;;;5.40;88.60;;;;;;5091890;28;20378;-82
2021/05/06 06:32:53;;;;;;;19.35;11.02;;;5.40;88.70;;;;;;5092614;28;20498;-82
2021/05/06 06:35:19;;;;;;;17.40;11.68;;;5.40;88.30;;;;;;5092223;28;20696;-82
2021/05/06 06:37:44;;;;;;;20.92;11.82;;;5.40;88.20;;;;;;5091860;28;20473;-82
2021/05/06 06:40:11;;;;;;;17.80;11.63;;;5.50;88.20;;;;;;5074147;28;20435;-82
2021/05/06 06:42:36;;;;;;;19.50;11.35;;;5.50;88.20;;;;;;5074021;28;20406;-81
2021/05/06 06:45:02;;;;;;;16.17;10.77;;;5.50;88.20;;;;;;5092224;28;20387;-82
2021/05/06 06:47:27;;;;;;;18.23;11.13;;;5.60;88.10;;;;;;5091716;28;20370;-83
2021/05/06 06:49:53;;;;;;;24.57;12.27;;;5.60;87.50;;;;;;5091797;28;20382;-84
2021/05/06 06:52:18;;;;;;;19.07;12.27;;;5.60;88.00;;;;;;5073812;28;20374;-82
2021/05/06 06:54:46;;;;;;;16.75;11.95;;;5.70;87.90;;;;;;5073791;28;20446;-81
2021/05/06 06:57:12;;;;;;;19.90;12.70;;;5.80;87.80;;;;;;5091304;28;20845;-81
2021/05/06 06:59:37;;;;;;;19.27;12.25;;;5.90;87.60;;;;;;5091542;28;20378;-83
2021/05/06 07:02:03;;;;;;;17.00;12.02;;;5.80;87.30;;;;;;5091612;28;20406;-83
2021/05/06 07:04:29;;;;;;;15.95;11.38;;;5.80;87.20;;;;;;5073767;28;20831;-82
2021/05/06 07:06:56;;;;;;;18.92;11.68;;;6.00;86.90;;;;;;5073196;28;20379;-82
2021/05/06 07:09:23;;;;;;;17.38;10.23;;;5.90;86.80;;;;;;5091843;28;20385;-82
2021/05/06 07:11:48;;;;;;;18.13;11.43;;;5.80;86.20;;;;;;5091253;28;20377;-82
2021/05/06 07:14:14;;;;;;;19.87;11.40;;;5.90;85.50;;;;;;5072957;28;20386;-82
2021/05/06 07:16:39;;;;;;;19.63;11.60;;;6.00;86.00;;;;;;5091018;28;20420;-83
2021/05/06 07:19:05;;;;;;;18.03;10.63;;;6.00;85.50;;;;;;5091766;28;20389;-82
2021/05/06 07:21:31;;;;;;;17.15;11.68;;;6.20;85.20;;;;;;5072870;28;20417;-81
2021/05/06 07:23:56;;;;;;;18.25;11.45;;;6.40;85.60;;;;;;5091329;28;20371;-83
2021/05/06 07:26:24;;;;;;;15.10;9.75;;;6.20;84.50;;;;;;5091236;28;20829;-92
2021/05/06 07:28:50;;;;;;;17.52;10.48;;;6.20;83.70;;;;;;5091030;28;20374;-83
2021/05/06 07:31:16;;;;;;;19.88;11.20;;;6.20;83.10;;;;;;5091397;28;20370;-82
2021/05/06 07:33:44;;;;;;;18.15;10.43;;;6.40;83.20;;;;;;5073045;28;20395;-85
2021/05/06 07:36:11;;;;;;;18.77;11.20;;;6.40;82.90;;;;;;5073294;28;20387;-83
2021/05/06 07:38:37;;;;;;;18.75;10.85;;;6.60;83.80;;;;;;5090674;28;20370;-83
2021/05/06 07:41:02;;;;;;;17.23;11.25;;;6.70;83.40;;;;;;5072967;28;20794;-82
2021/05/06 07:43:30;;;;;;;15.60;11.38;;;6.60;80.90;;;;;;5090902;28;20374;-82
2021/05/06 07:45:56;;;;;;;15.50;11.13;;;6.50;81.30;;;;;;5090854;28;20374;-82
2021/05/06 07:48:22;;;;;;;16.33;12.15;;;6.50;82.20;;;;;;5072457;28;20375;-81
2021/05/06 07:50:48;;;;;;;18.58;11.82;;;6.40;81.60;;;;;;5090624;28;20680;-82
2021/05/06 07:53:16;;;;;;;16.65;11.85;;;6.50;82.30;;;;;;5091054;28;20745;-83
2021/05/06 07:55:42;;;;;;;17.63;12.68;;;6.60;82.50;;;;;;5090488;28;20370;-85
2021/05/06 07:58:08;;;;;;;19.67;12.80;;;6.80;82.80;;;;;;5072149;28;20460;-85
2021/05/06 08:00:35;;;;;;;18.25;12.23;;;6.80;82.30;;;;;;5071901;28;20386;-83
2021/05/06 08:03:02;;;;;;;19.87;13.43;;;6.80;81.90;;;;;;5091140;28;20444;-83
2021/05/06 08:05:28;;;;;;;18.67;13.63;;;6.90;81.90;;;;;;5091183;28;20381;-83
2021/05/06 08:07:53;;;;;;;20.25;13.25;;;6.90;81.00;;;;;;5072711;28;20912;-84
2021/05/06 08:10:22;;;;;;;18.37;12.80;;;6.90;81.70;;;;;;5091035;28;20374;-83
2021/05/06 08:12:47;;;;;;;20.63;11.48;;;7.10;81.20;;;;;;5091237;28;20389;-82
2021/05/06 08:15:13;;;;;;;20.83;12.57;;;7.00;79.20;;;;;;5072759;28;20648;-81
2021/05/06 08:17:41;;;;;;;19.95;11.93;;;7.00;79.90;;;;;;5090817;28;20381;-83
2021/05/06 08:20:09;;;;;;;16.25;10.50;;;7.20;79.50;;;;;;5090231;28;20385;-81
2021/05/06 08:22:36;;;;;;;16.45;11.50;;;7.10;80.30;;;;;;5071984;28;20406;-82
2021/05/06 08:25:04;;;;;;;18.13;11.10;;;7.30;79.40;;;;;;5090534;28;20373;-81
2021/05/06 08:27:31;;;;;;;18.25;11.52;;;7.10;79.10;;;;;;5070647;28;20851;-82
2021/05/06 08:29:58;;;;;;;20.15;11.93;;;7.40;80.10;;;;;;5072226;28;20386;-82
2021/05/06 08:32:23;;;;;;;18.90;11.95;;;7.50;80.90;;;;;;5090112;28;20389;-82
2021/05/06 08:34:49;;;;;;;15.20;11.10;;;7.50;79.40;;;;;;5072591;28;20378;-82
2021/05/06 08:37:15;;;;;;;16.40;11.35;;;7.30;76.70;;;;;;5090085;28;20888;-84
2021/05/06 08:39:41;;;;;;;17.98;11.10;;;7.20;78.00;;;;;;5091103;28;20374;-82
2021/05/06 08:42:07;;;;;;;16.67;11.25;;;7.40;78.30;;;;;;5069984;28;20422;-83
2021/05/06 08:44:36;;;;;;;16.83;11.73;;;7.20;77.50;;;;;;5071812;28;20386;-82
2021/05/06 08:47:05;;;;;;;19.42;11.40;;;7.30;77.10;;;;;;5089663;28;20395;-83
2021/05/06 08:49:36;;;;;;;17.80;10.57;;;7.30;76.40;;;;;;5090272;28;20366;-81
2021/05/06 08:52:05;;;;;;;17.70;10.60;;;7.40;74.70;;;;;;5089947;28;20386;-86
2021/05/06 08:54:31;;;;;;;14.05;9.60;;;7.70;76.50;;;;;;5089613;28;20382;-82
2021/05/06 08:56:57;;;;;;;12.13;8.75;;;8.20;72.90;;;;;;5071850;28;20385;-81
2021/05/06 08:59:23;;;;;;;14.73;8.82;;;8.30;70.80;;;;;;5071591;28;20389;-84
2021/05/06 09:01:49;;;;;;;10.17;6.97;;;8.80;71.70;;;;;;5071909;28;20504;-82
2021/05/06 09:04:14;;;;;;;11.10;7.30;;;8.70;69.90;;;;;;5089742;28;20378;-87
2021/05/06 09:06:56;;;;;;;11.90;7.97;;;9.10;67.80;;;;;;5071522;28;20382;-82
2021/05/06 09:09:24;;;;;;;10.67;8.63;;;9.40;67.10;;;;;;5089684;28;20390;-82
2021/05/06 09:11:55;;;;;;;12.40;8.40;;;8.60;67.90;;;;;;5089820;28;20552;-85
2021/05/06 09:14:41;;;;;;;11.45;8.00;;;8.70;70.50;;;;;;5089926;28;20401;-83
2021/05/06 09:17:24;;;;;;;11.05;8.40;;;8.90;70.40;;;;;;5089592;28;20367;-83
2021/05/06 09:20:16;;;;;;;11.98;8.15;;;8.90;67.20;;;;;;5089756;28;20397;-85
2021/05/06 09:22:44;;;;;;;10.45;7.72;;;8.80;71.30;;;;;;5071509;28;20416;-81
2021/05/06 09:25:27;;;;;;;11.45;7.50;;;9.80;67.10;;;;;;5087766;28;20377;-85
2021/05/06 09:28:06;;;;;;;7.97;6.82;;;9.40;68.60;;;;;;5071340;28;20421;-84
2021/05/06 09:30:34;;;;;;;10.07;7.03;;;9.30;65.80;;;;;;5089389;28;20385;-82
2021/05/06 09:33:05;;;;;;;8.87;6.37;;;9.10;66.90;;;;;;5089912;28;20593;-81
2021/05/06 09:35:48;;;;;;;8.27;5.63;;;9.70;67.20;;;;;;5089446;28;20880;-84
2021/05/06 09:38:35;;;;;;;7.82;5.15;;;10.20;64.90;;;;;;5091863;28;20842;-81
2021/05/06 09:41:04;;;;;;;7.63;5.43;;;9.60;66.50;;;;;;5092933;28;20386;-82
2021/05/06 09:43:42;;;;;;;6.93;5.27;;;9.40;64.10;;;;;;5093089;28;20415;-82
2021/05/06 09:46:42;;;;;;;8.48;5.38;;;9.90;67.60;;;;;;5093264;28;20405;-82
2021/05/06 09:49:10;;;;;;;6.65;5.30;;;9.40;66.20;;;;;;5075105;28;20782;-82
2021/05/06 09:51:41;;;;;;;8.93;5.18;;;9.40;65.00;;;;;;5093075;28;20378;-80
2021/05/06 09:54:09;;;;;;;8.45;5.25;;;8.90;66.20;;;;;;5093141;28;20374;-81
2021/05/06 09:56:36;;;;;;;9.10;5.40;;;8.90;68.80;;;;;;5092717;28;20852;-82
2021/05/06 09:59:02;;;;;;;7.63;5.57;;;8.80;67.50;;;;;;5093133;28;20441;-83
2021/05/06 10:01:42;;;;;;;7.13;4.65;;;9.50;68.10;;;;;;5074736;28;20791;-82
2021/05/06 10:04:26;;;;;;;7.45;4.28;;;10.10;64.40;;;;;;5093064;28;20382;-82
2021/05/06 10:07:16;;;;;;;4.40;3.93;;;10.40;64.80;;;;;;5092230;28;20374;-82
2021/05/06 10:09:54;;;;;;;5.33;3.93;;;10.10;59.20;;;;;;5092800;28;20857;-80
2021/05/06 10:12:21;;;;;;;8.00;4.13;;;9.50;61.30;;;;;;5092464;28;20374;-82
2021/05/06 10:14:47;;;;;;;7.53;4.00;;;9.10;67.70;;;;;;5092356;28;20382;-81
2021/05/06 10:17:16;;;;;;;6.88;4.03;;;9.00;67.70;;;;;;5092363;28;20881;-80
2021/05/06 10:19:42;;;;;;;7.80;4.00;;;9.50;67.60;;;;;;5092628;28;20435;-81
2021/05/06 10:22:10;;;;;;;6.10;4.32;;;10.20;63.60;;;;;;5074411;28;20402;-81
2021/05/06 10:24:41;;;;;;;6.38;3.80;;;10.10;61.60;;;;;;5092389;28;20519;-80
2021/05/06 10:27:10;;;;;;;5.43;3.97;;;9.80;61.10;;;;;;5092144;28;20428;-82
2021/05/06 10:29:36;;;;;;;7.30;4.40;;;9.50;63.40;;;;;;5074276;28;20382;-84
2021/05/06 10:32:02;;;;;;;5.10;3.65;;;10.30;63.90;;;;;;5074285;28;20390;-82
2021/05/06 10:34:32;;;;;;;5.53;3.30;;;10.70;60.90;;;;;;5092077;28;20553;-82
2021/05/06 10:36:58;;;;;;;5.55;3.80;;;10.50;59.00;;;;;;5092084;28;20389;-85
2021/05/06 10:39:36;;;;;;;5.80;3.42;;;10.80;57.70;;;;;;5091985;28;20939;-85
2021/05/06 10:42:31;;;;;;;6.57;3.13;;;11.00;56.40;;;;;;5092363;28;20401;-84
2021/05/06 10:45:12;;;;;;;4.40;3.33;;;11.20;59.60;;;;;;5074531;28;20469;-81
2021/05/06 10:47:38;;;;;;;4.23;3.40;;;11.40;61.50;;;;;;5089248;28;20377;-85
2021/05/06 10:50:14;;;;;;;4.90;3.20;;;11.80;58.10;;;;;;5091674;28;20718;-80
2021/05/06 10:52:46;;;;;;;6.97;3.15;;;11.90;54.10;;;;;;5073200;28;20890;-81
2021/05/06 10:55:14;;;;;;;6.10;3.42;;;10.90;57.20;;;;;;5074200;28;20401;-85
2021/05/06 10:57:41;;;;;;;4.53;3.15;;;10.80;58.00;;;;;;5091968;28;20378;-82
2021/05/06 11:00:15;;;;;;;5.17;3.10;;;10.60;55.20;;;;;;5091262;28;20735;-83
2021/05/06 11:02:45;;;;;;;5.78;3.00;;;11.30;56.50;;;;;;5090819;28;20420;-82
2021/05/06 11:05:18;;;;;;;4.65;3.00;;;12.50;55.30;;;;;;5072360;28;20777;-82
2021/05/06 11:08:07;;;;;;;4.38;2.33;;;12.90;52.40;;;;;;5072435;28;20858;-83
2021/05/06 11:10:46;;;;;;;2.97;2.10;;;11.90;51.00;;;;;;5068002;28;20509;-81
2021/05/06 11:13:12;;;;;;;5.03;2.20;;;11.60;47.70;;;;;;5089106;28;20389;-82
2021/05/06 11:15:39;;;;;;;4.45;2.13;;;11.80;48.80;;;;;;5092052;28;20382;-81
2021/05/06 11:18:07;;;;;;;3.22;2.15;;;11.90;52.40;;;;;;5091345;28;20378;-84
2021/05/06 11:20:34;;;;;;;5.07;2.80;;;12.30;45.90;;;;;;5091779;28;20731;-84
2021/05/06 11:23:00;;;;;;;4.93;2.55;;;11.50;45.40;;;;;;5073482;28;20780;-81
2021/05/06 11:25:38;;;;;;;3.80;2.20;;;11.00;47.40;;;;;;5073553;28;20390;-80
2021/05/06 11:28:06;;;;;;;5.55;2.10;;;11.00;46.60;;;;;;5091374;28;20457;-80
2021/05/06 11:30:35;;;;;;;4.75;2.30;;;11.10;50.10;;;;;;5073597;28;20382;-81
2021/05/06 11:33:19;;;;;;;4.68;2.35;;;11.90;50.40;;;;;;5091543;28;20400;-83
2021/05/06 11:36:17;;;;;;;4.70;2.38;;;11.90;46.70;;;;;;5091534;28;20430;-82
2021/05/06 11:38:52;;;;;;;5.63;2.45;;;11.40;49.90;;;;;;5091401;28;20382;-83
2021/05/06 11:41:29;;;;;;;4.88;2.70;;;11.60;46.40;;;;;;5073203;28;20402;-81
2021/05/06 11:43:59;;;;;;;3.50;2.40;;;11.80;51.00;;;;;;5073609;28;20393;-81
2021/05/06 11:46:35;;;;;;;3.97;2.22;;;12.50;45.30;;;;;;5072963;28;20378;-82
2021/05/06 11:49:03;;;;;;;3.72;2.05;;;12.30;48.10;;;;;;5090543;28;20409;-85
2021/05/06 11:51:31;;;;;;;4.43;2.30;;;11.90;46.90;;;;;;5073008;28;20904;-81
2021/05/06 11:54:16;;;;;;;5.68;2.45;;;12.10;48.90;;;;;;5091263;28;20389;-83
2021/05/06 11:56:53;;;;;;;3.38;2.15;;;11.90;44.90;;;;;;5091160;28;20793;-81
2021/05/06 11:59:26;;;;;;;4.57;2.30;;;11.80;44.50;;;;;;5073012;28;20863;-82
2021/05/06 12:01:53;;;;;;;2.40;1.70;;;12.80;49.60;;;;;;5091272;28;20406;-82
2021/05/06 12:04:41;;;;;;;4.80;1.40;;;12.90;45.10;;;;;;5072944;28;20382;-82
2021/05/06 12:07:14;;;;;;;3.42;1.80;;;13.90;40.00;;;;;;5090690;28;20388;-81
2021/05/06 12:09:40;;;;;;;2.35;1.42;;;12.80;41.50;;;;;;5091110;28;20416;-81
2021/05/06 12:12:06;;;;;;;2.80;1.70;;;12.30;42.10;;;;;;5090942;28;20382;-81
2021/05/06 12:14:36;;;;;;;3.45;2.08;;;11.70;42.70;;;;;;5073195;28;20400;-81
2021/05/06 12:17:06;;;;;;;3.05;1.63;;;11.90;46.10;;;;;;5090723;28;20412;-83
2021/05/06 12:19:39;;;;;;;2.57;1.40;;;12.30;40.00;;;;;;5073131;28;20385;-82
2021/05/06 12:22:05;;;;;;;2.97;1.63;;;12.70;44.60;;;;;;5090755;28;20829;-80
2021/05/06 12:24:37;;;;;;;6.23;1.50;;;12.30;42.50;;;;;;5073270;28;20548;-82
2021/05/06 12:27:18;;;;;;;2.63;1.80;;;12.40;43.90;;;;;;5072487;28;20386;-87
2021/05/06 12:29:45;;;;;;;2.63;1.75;;;12.20;41.80;;;;;;5090899;28;20381;-83
2021/05/06 12:32:31;;;;;;;2.97;1.80;;;12.20;42.80;;;;;;5091204;28;20400;-82
2021/05/06 12:34:57;;;;;;;3.45;1.63;;;12.90;43.40;;;;;;5090981;28;20445;-82
2021/05/06 12:37:27;;;;;;;2.63;1.40;;;13.30;44.50;;;;;;5090800;28;20914;-81
2021/05/06 12:39:53;;;;;;;2.88;1.60;;;12.70;40.90;;;;;;5090794;28;20378;-81
2021/05/06 12:42:30;;;;;;;4.28;1.67;;;12.60;42.30;;;;;;5072615;28;20496;-81
2021/05/06 12:44:56;;;;;;;2.63;1.42;;;12.20;45.80;;;;;;5072433;28;20374;-81
2021/05/06 12:47:29;;;;;;;7.75;1.70;;;12.30;43.30;;;;;;5090528;28;20417;-80
2021/05/06 12:50:12;;;;;;;2.53;1.67;;;12.40;42.80;;;;;;5090557;28;20378;-81
2021/05/06 12:52:40;;;;;;;3.90;1.60;;;12.90;42.70;;;;;;5090643;28;20386;-81
2021/05/06 12:55:20;;;;;;;4.10;1.58;;;13.40;44.00;;;;;;5072625;28;20850;-80
2021/05/06 12:58:02;;;;;;;2.72;1.67;;;14.10;43.90;;;;;;5071960;28;20469;-83
2021/05/06 13:00:28;;;;;;;4.60;1.70;;;14.10;41.30;;;;;;5072197;28;20382;-83
2021/05/06 13:03:05;;;;;;;2.50;1.40;;;13.60;41.50;;;;;;5090371;28;20412;-83
2021/05/06 13:05:36;;;;;;;3.20;1.60;;;13.40;40.80;;;;;;5090697;28;20455;-83
2021/05/06 13:08:04;;;;;;;4.05;1.42;;;13.60;41.30;;;;;;5071854;28;20427;-84
2021/05/06 13:10:43;;;;;;;2.55;1.25;;;13.70;39.20;;;;;;5072309;28;20764;-81
2021/05/06 13:13:11;;;;;;;2.40;1.30;;;13.80;38.50;;;;;;5092622;28;20378;-83
2021/05/06 13:15:49;;;;;;;5.13;1.58;;;13.30;38.90;;;;;;5094537;28;20893;-82
2021/05/06 13:18:15;;;;;;;3.85;1.70;;;13.10;41.10;;;;;;5094193;28;20374;-80
2021/05/06 13:20:43;;;;;;;6.10;1.60;;;12.70;41.50;;;;;;5094152;28;20374;-82
2021/05/06 13:23:10;;;;;;;4.35;1.50;;;13.00;40.50;;;;;;5094218;28;20406;-80
2021/05/06 13:25:54;;;;;;;3.85;1.55;;;12.60;41.00;;;;;;5075859;28;20451;-81
2021/05/06 13:28:41;;;;;;;3.78;1.70;;;12.90;43.90;;;;;;5093747;28;20745;-80
2021/05/06 13:31:17;;;;;;;7.13;1.38;;;13.00;39.90;;;;;;5094095;28;20370;-81
2021/05/06 13:33:43;;;;;;;2.75;1.75;;;12.60;42.20;;;;;;5075757;28;20399;-81
2021/05/06 13:36:15;;;;;;;2.53;1.63;;;12.60;39.90;;;;;;5075910;28;20378;-79
2021/05/06 13:39:01;;;;;;;2.83;1.70;;;12.30;41.50;;;;;;5093544;28;20411;-82
2021/05/06 13:41:35;;;;;;;3.90;1.55;;;12.30;42.60;;;;;;5075392;28;20410;-80
2021/05/06 13:44:02;;;;;;;2.03;1.40;;;12.60;41.10;;;;;;5093436;28;20370;-79
2021/05/06 13:46:30;;;;;;;3.40;1.80;;;13.10;43.70;;;;;;5074997;28;20372;-80
2021/05/06 13:48:56;;;;;;;5.78;1.95;;;12.70;39.40;;;;;;5075543;28;20390;-80
2021/05/06 13:51:23;;;;;;;2.90;1.50;;;12.30;40.70;;;;;;5075362;28;20417;-81
2021/05/06 13:53:50;;;;;;;4.43;2.15;;;12.40;42.60;;;;;;5093782;28;20378;-81
2021/05/06 13:56:16;;;;;;;3.33;1.50;;;12.90;44.00;;;;;;5093350;28;20865;-79
2021/05/06 13:58:42;;;;;;;3.95;1.52;;;12.50;40.10;;;;;;5075192;28;20378;-82
2021/05/06 14:01:10;;;;;;;2.80;1.50;;;12.90;43.50;;;;;;5093199;28;20378;-84
2021/05/06 14:03:36;;;;;;;3.20;1.77;;;13.30;40.00;;;;;;5093787;28;20707;-83
2021/05/06 14:06:03;;;;;;;5.05;1.70;;;13.40;40.30;;;;;;5093576;28;20865;-81
2021/05/06 14:08:29;;;;;;;3.92;1.38;;;13.00;39.10;;;;;;5075071;28;20378;-80
2021/05/06 14:10:55;;;;;;;2.42;1.40;;;13.10;43.00;;;;;;5093409;28;20374;-80
2021/05/06 14:13:22;;;;;;;3.95;1.45;;;13.50;42.90;;;;;;5092995;28;20859;-80
2021/05/06 14:15:48;;;;;;;3.95;1.40;;;13.00;39.70;;;;;;5075426;28;20431;-80
2021/05/06 14:18:14;;;;;;;4.30;1.63;;;12.60;41.00;;;;;;5092993;28;20385;-80
2021/05/06 14:20:40;;;;;;;2.85;1.52;;;12.70;40.90;;;;;;5075551;28;20382;-80
2021/05/06 14:23:07;;;;;;;2.90;1.50;;;12.30;41.60;;;;;;5092731;28;20398;-81
2021/05/06 14:25:34;;;;;;;3.92;1.70;;;12.90;44.20;;;;;;5092778;28;20457;-80
2021/05/06 14:28:00;;;;;;;3.72;1.70;;;12.40;40.00;;;;;;5074645;28;20394;-80
2021/05/06 14:30:26;;;;;;;3.00;1.65;;;12.30;40.80;;;;;;5093279;28;20382;-82
2021/05/06 14:32:52;;;;;;;4.70;1.70;;;12.10;38.70;;;;;;5074478;28;20913;-79
2021/05/06 14:35:17;;;;;;;3.10;1.50;;;12.30;41.50;;;;;;5093112;28;20435;-79
2021/05/06 14:37:43;;;;;;;5.37;1.67;;;12.70;42.40;;;;;;5092178;28;20453;-80
2021/05/06 14:40:09;;;;;;;3.40;1.40;;;12.60;39.80;;;;;;5092781;28;20375;-83
2021/05/06 14:42:35;;;;;;;5.15;1.48;;;12.40;40.80;;;;;;5074154;28;20464;-81
2021/05/06 14:45:01;;;;;;;2.20;1.40;;;12.50;38.10;;;;;;5092940;28;20425;-80
2021/05/06 14:47:27;;;;;;;5.97;1.45;;;12.30;40.00;;;;;;5074259;28;20374;-81
2021/05/06 14:49:53;;;;;;;5.95;1.50;;;12.50;41.20;;;;;;5074493;28;20734;-80
2021/05/06 14:52:19;;;;;;;4.25;2.03;;;12.30;41.60;;;;;;5074426;28;20426;-79
2021/05/06 14:54:46;;;;;;;4.82;1.52;;;12.40;41.90;;;;;;5092486;28;20378;-80
2021/05/06 14:57:11;;;;;;;6.97;1.50;;;12.30;40.60;;;;;;5091855;28;20374;-81
2021/05/06 14:59:37;;;;;;;4.13;1.70;;;11.90;41.60;;;;;;5092250;28;20374;-80
2021/05/06 15:02:02;;;;;;;3.67;1.63;;;12.30;44.70;;;;;;5092104;28;20826;-82
2021/05/06 15:04:28;;;;;;;3.27;1.63;;;12.30;40.20;;;;;;5092278;28;20367;-81
2021/05/06 15:06:54;;;;;;;4.40;1.43;;;12.30;40.20;;;;;;5092325;28;20719;-80
2021/05/06 15:09:21;;;;;;;2.77;1.60;;;12.10;41.10;;;;;;5073531;28;20389;-80
2021/05/06 15:11:47;;;;;;;7.57;1.42;;;12.20;41.50;;;;;;5092051;28;20711;-82
2021/05/06 15:14:12;;;;;;;3.20;1.50;;;12.50;42.60;;;;;;5092274;28;20386;-80
2021/05/06 15:16:38;;;;;;;4.40;1.70;;;12.00;41.40;;;;;;5091931;28;20453;-80
2021/05/06 15:19:03;;;;;;;3.97;1.52;;;12.10;41.60;;;;;;5073882;28;20373;-79
2021/05/06 15:21:29;;;;;;;4.18;2.00;;;12.30;45.00;;;;;;5091642;28;20410;-80
2021/05/06 15:23:55;;;;;;;4.03;1.65;;;12.00;44.00;;;;;;5092103;28;20378;-81
2021/05/06 15:26:21;;;;;;;2.80;1.60;;;12.00;43.30;;;;;;5091811;28;20385;-81
2021/05/06 15:28:46;;;;;;;5.70;1.70;;;11.90;43.00;;;;;;5091418;28;20461;-79
2021/05/06 15:31:12;;;;;;;5.10;1.40;;;11.90;43.80;;;;;;5091683;28;20745;-79
2021/05/06 15:33:37;;;;;;;3.58;1.40;;;11.90;44.60;;;;;;5091877;28;20384;-79
2021/05/06 15:36:03;;;;;;;3.03;1.58;;;11.70;44.20;;;;;;5073238;28;20406;-81
2021/05/06 15:38:29;;;;;;;3.95;1.50;;;11.40;43.30;;;;;;5091494;28;20370;-82
2021/05/06 15:40:55;;;;;;;3.13;1.52;;;11.70;42.90;;;;;;5091848;28;20463;-83
2021/05/06 15:43:21;;;;;;;5.83;1.50;;;11.50;41.90;;;;;;5091491;28;20513;-78
2021/05/06 15:45:47;;;;;;;8.70;1.70;;;11.50;44.60;;;;;;5091789;28;20908;-78
2021/05/06 15:48:15;;;;;;;4.53;1.88;;;11.40;44.40;;;;;;5072898;28;20428;-78
2021/05/06 15:50:42;;;;;;;3.77;1.50;;;11.10;44.80;;;;;;5091820;28;20412;-79
2021/05/06 15:53:09;;;;;;;3.72;1.52;;;11.00;45.90;;;;;;5073031;28;20425;-80
2021/05/06 15:55:35;;;;;;;3.63;1.63;;;11.30;47.50;;;;;;5073577;28;20382;-80
2021/05/06 15:58:03;;;;;;;3.00;1.48;;;11.20;46.00;;;;;;5091103;28;20381;-79
2021/05/06 16:00:29;;;;;;;4.60;1.90;;;11.00;47.00;;;;;;5073548;28;20385;-82
2021/05/06 16:03:03;;;;;;;4.57;2.08;;;10.80;47.30;;;;;;5073169;28;20402;-79
2021/05/06 16:05:29;;;;;;;3.03;1.77;;;10.80;47.90;;;;;;5091894;28;20366;-80